Time;durP1;ratioP1;P1;durP2;ratioP2;P2;SDS_P1;SDS_P2;PMS_P1;PMS_P2;Temp;Humidity;BMP_temperature;BMP_pressure;BME280_temperature;BME280_humidity;BME280_pressure;Samples;Min_cycle;Max_cycle;Signal;HPM_P1;HPM_P2
2023/02/22 00:00:21;;;;;;;32.60;27.50;;;;;19.50;100387.00;;;;2080285;28;20362;-67
2023/02/22 00:01:34;;;;;;;32.25;27.60;;;;;19.90;100384.00;;;;2071841;28;20218;-67
2023/02/22 00:02:36;;;;;;;30.38;25.85;;;;;19.90;100393.00;;;;2076075;28;20218;-68
2023/02/22 00:03:37;;;;;;;32.92;26.85;;;;;19.90;100384.00;;;;2089043;28;20213;-67
2023/02/22 00:04:41;;;;;;;31.58;26.05;;;;;19.90;100389.00;;;;2088948;28;20216;-68
2023/02/22 00:05:45;;;;;;;33.83;26.27;;;;;19.90;100390.00;;;;2089103;28;20311;-67
2023/02/22 00:06:46;;;;;;;33.67;26.60;;;;;19.90;100386.00;;;;2088926;28;20668;-67
2023/02/22 00:07:47;;;;;;;31.33;26.80;;;;;19.90;100376.00;;;;2088512;28;20216;-67
2023/02/22 00:08:48;;;;;;;29.80;25.47;;;;;19.90;100385.00;;;;2087506;28;20970;-67
2023/02/22 00:09:48;;;;;;;31.70;25.67;;;;;19.90;100387.00;;;;2088249;28;20553;-68
2023/02/22 00:10:52;;;;;;;29.57;25.77;;;;;19.80;100378.00;;;;2087912;28;20227;-67
2023/02/22 00:11:52;;;;;;;31.08;25.52;;;;;19.90;100387.00;;;;2079095;28;20221;-67
2023/02/22 00:12:53;;;;;;;33.80;26.60;;;;;19.90;100381.00;;;;2079941;28;20213;-66
2023/02/22 00:13:55;;;;;;;30.40;25.25;;;;;19.80;100383.00;;;;2088971;28;20282;-67
2023/02/22 00:14:56;;;;;;;28.90;24.75;;;;;19.90;100388.00;;;;2079850;28;20999;-68
2023/02/22 00:15:56;;;;;;;34.00;26.73;;;;;19.90;100389.00;;;;2072083;28;20221;-68
2023/02/22 00:16:58;;;;;;;29.73;24.60;;;;;19.80;100385.00;;;;2071726;28;20219;-67
2023/02/22 00:17:58;;;;;;;29.23;23.58;;;;;19.80;100384.00;;;;2071504;28;20578;-67
2023/02/22 00:18:59;;;;;;;31.10;24.20;;;;;19.80;100375.00;;;;2071278;28;20213;-67
2023/02/22 00:19:59;;;;;;;28.23;22.90;;;;;19.80;100377.00;;;;2080077;28;20211;-68
2023/02/22 00:20:59;;;;;;;27.57;23.80;;;;;19.80;100375.00;;;;2088983;28;20205;-68
2023/02/22 00:22:00;;;;;;;31.37;24.13;;;;;19.80;100376.00;;;;2079950;28;20214;-67
2023/02/22 00:23:00;;;;;;;27.43;23.47;;;;;19.80;100388.00;;;;2080043;28;20210;-67
2023/02/22 00:24:15;;;;;;;26.80;22.67;;;;;19.80;100377.00;;;;2088779;28;20244;-68
2023/02/22 00:25:21;;;;;;;28.63;22.85;;;;;19.80;100375.00;;;;2088502;28;20216;-68
2023/02/22 00:26:22;;;;;;;30.50;23.88;;;;;19.80;100375.00;;;;2088829;28;20232;-67
2023/02/22 00:27:22;;;;;;;30.10;23.00;;;;;19.80;100387.00;;;;2071777;28;20241;-67
2023/02/22 00:28:23;;;;;;;29.27;23.87;;;;;19.80;100371.00;;;;2071526;28;20305;-68
2023/02/22 00:29:23;;;;;;;28.23;22.63;;;;;19.80;100377.00;;;;2087071;28;20221;-67
2023/02/22 00:30:25;;;;;;;26.83;22.23;;;;;19.80;100376.00;;;;2088578;28;20216;-68
2023/02/22 00:31:25;;;;;;;25.40;21.95;;;;;19.80;100373.00;;;;2088192;28;20573;-67
2023/02/22 00:32:26;;;;;;;26.70;21.90;;;;;19.80;100378.00;;;;2079845;28;20223;-68
2023/02/22 00:33:26;;;;;;;27.50;22.73;;;;;19.80;100388.00;;;;2079057;28;20213;-67
2023/02/22 00:34:26;;;;;;;27.47;22.17;;;;;19.80;100382.00;;;;2088603;28;20711;-67
2023/02/22 00:35:29;;;;;;;28.70;22.83;;;;;19.80;100375.00;;;;2088526;28;20209;-68
2023/02/22 00:36:29;;;;;;;27.45;21.52;;;;;19.80;100376.00;;;;2088887;28;20216;-67
2023/02/22 00:37:30;;;;;;;26.03;21.37;;;;;19.80;100375.00;;;;2088824;28;20209;-67
2023/02/22 00:38:30;;;;;;;26.60;21.83;;;;;19.80;100386.00;;;;2088508;28;20209;-68
2023/02/22 00:39:31;;;;;;;24.67;20.77;;;;;19.80;100373.00;;;;2088364;28;20692;-67
2023/02/22 00:40:32;;;;;;;29.17;22.10;;;;;19.70;100369.00;;;;2079794;28;20693;-68
2023/02/22 00:41:33;;;;;;;26.83;21.58;;;;;19.80;100377.00;;;;2071778;28;20206;-67
2023/02/22 00:42:33;;;;;;;24.73;20.63;;;;;19.70;100373.00;;;;2079698;28;20201;-67
2023/02/22 00:43:33;;;;;;;25.17;21.03;;;;;19.40;100376.00;;;;2088712;28;20208;-67
2023/02/22 00:44:34;;;;;;;25.00;20.00;;;;;19.70;100367.00;;;;2079885;28;20304;-67
2023/02/22 00:45:35;;;;;;;23.07;19.63;;;;;19.70;100369.00;;;;2063561;28;20218;-67
2023/02/22 00:46:35;;;;;;;26.07;20.73;;;;;19.70;100362.00;;;;2071693;28;20210;-67
2023/02/22 00:47:35;;;;;;;24.73;20.60;;;;;19.70;100367.00;;;;2088215;28;20580;-67
2023/02/22 00:48:36;;;;;;;23.63;19.97;;;;;19.70;100374.00;;;;2088558;28;20212;-67
2023/02/22 00:49:36;;;;;;;25.00;21.10;;;;;19.70;100367.00;;;;2079725;28;20654;-68
2023/02/22 00:50:36;;;;;;;25.40;20.77;;;;;19.70;100371.00;;;;2071518;28;20605;-67
2023/02/22 00:51:37;;;;;;;26.53;20.73;;;;;19.70;100353.00;;;;2079609;28;20244;-67
2023/02/22 00:52:37;;;;;;;24.63;19.90;;;;;19.70;100361.00;;;;2079858;28;20263;-68
2023/02/22 00:53:37;;;;;;;28.30;20.93;;;;;19.70;100363.00;;;;2088682;28;20339;-67
2023/02/22 00:54:38;;;;;;;26.07;21.73;;;;;19.70;100354.00;;;;2088582;28;20219;-67
2023/02/22 00:55:38;;;;;;;25.40;20.70;;;;;19.70;100364.00;;;;2088560;28;20212;-67
2023/02/22 00:56:39;;;;;;;23.23;19.50;;;;;19.70;100363.00;;;;2076638;28;20213;-67
2023/02/22 00:57:39;;;;;;;22.73;19.13;;;;;19.70;100354.00;;;;2087130;28;20220;-67
2023/02/22 00:58:39;;;;;;;26.73;20.80;;;;;19.70;100344.00;;;;2087354;28;20228;-67
2023/02/22 00:59:40;;;;;;;25.00;19.97;;;;;19.70;100356.00;;;;2078632;28;20224;-68
2023/02/22 01:00:41;;;;;;;24.10;19.13;;;;;19.70;100351.00;;;;2079132;28;20217;-67
2023/02/22 01:01:41;;;;;;;26.27;20.67;;;;;19.70;100353.00;;;;2079284;28;20654;-68
2023/02/22 01:02:42;;;;;;;25.73;20.87;;;;;19.70;100348.00;;;;2079126;28;20448;-68
2023/02/22 01:03:42;;;;;;;25.30;19.90;;;;;19.70;100349.00;;;;2088024;28;20219;-67
2023/02/22 01:04:43;;;;;;;24.30;20.20;;;;;19.70;100356.00;;;;2087905;28;20220;-67
2023/02/22 01:05:43;;;;;;;23.47;19.90;;;;;19.70;100351.00;;;;2079054;28;20228;-67
2023/02/22 01:06:43;;;;;;;29.13;20.27;;;;;19.70;100353.00;;;;2079801;28;20212;-67
2023/02/22 01:07:44;;;;;;;23.30;20.10;;;;;19.70;100347.00;;;;2088537;28;20466;-67
2023/02/22 01:08:45;;;;;;;25.00;19.37;;;;;19.70;100353.00;;;;2079341;28;20220;-67
2023/02/22 01:09:45;;;;;;;24.17;20.17;;;;;19.70;100351.00;;;;2079839;28;20209;-68
2023/02/22 01:10:45;;;;;;;23.30;18.73;;;;;19.60;100339.00;;;;2088359;28;20459;-67
2023/02/22 01:11:47;;;;;;;23.47;18.87;;;;;19.60;100354.00;;;;2079711;28;20209;-67
2023/02/22 01:12:48;;;;;;;22.15;18.55;;;;;19.70;100342.00;;;;2079682;28;20209;-66
2023/02/22 01:13:49;;;;;;;24.90;19.25;;;;;19.70;100348.00;;;;2088281;28;20209;-67
2023/02/22 01:14:49;;;;;;;27.37;20.10;;;;;19.60;100347.00;;;;2088400;28;21804;-68
2023/02/22 01:15:50;;;;;;;23.67;18.50;;;;;19.60;100344.00;;;;2088546;28;20220;-67
2023/02/22 01:16:50;;;;;;;25.20;20.60;;;;;19.60;100347.00;;;;2088540;28;20240;-67
2023/02/22 01:17:52;;;;;;;23.33;18.70;;;;;19.60;100343.00;;;;2079688;28;20217;-67
2023/02/22 01:18:52;;;;;;;25.42;19.65;;;;;19.60;100349.00;;;;2079426;28;20283;-67
2023/02/22 01:19:53;;;;;;;26.30;19.80;;;;;19.60;100343.00;;;;2088342;28;20278;-68
2023/02/22 01:20:53;;;;;;;24.50;19.40;;;;;19.60;100347.00;;;;2087851;28;20228;-67
2023/02/22 01:21:53;;;;;;;26.53;19.23;;;;;19.60;100346.00;;;;2079689;28;20224;-67
2023/02/22 01:22:55;;;;;;;24.23;19.03;;;;;19.60;100347.00;;;;2079753;28;20218;-67
2023/02/22 01:23:55;;;;;;;21.90;18.48;;;;;19.60;100347.00;;;;2079644;28;20209;-68
2023/02/22 01:24:56;;;;;;;25.70;20.53;;;;;19.60;100347.00;;;;2079380;28;20214;-68
2023/02/22 01:25:56;;;;;;;25.80;18.97;;;;;19.60;100337.00;;;;2088404;28;20212;-67
2023/02/22 01:26:56;;;;;;;23.67;18.63;;;;;19.60;100344.00;;;;2088219;28;20212;-67
2023/02/22 01:27:58;;;;;;;23.60;18.33;;;;;19.60;100345.00;;;;2087934;28;20246;-67
2023/02/22 01:28:58;;;;;;;23.23;18.23;;;;;19.60;100341.00;;;;2088185;28;20209;-67
2023/02/22 01:29:58;;;;;;;22.73;18.67;;;;;19.60;100341.00;;;;2088273;28;20212;-67
2023/02/22 01:31:00;;;;;;;24.90;17.87;;;;;19.60;100304.00;;;;2088269;28;20277;-67
2023/02/22 01:32:00;;;;;;;23.65;18.42;;;;;19.60;100332.00;;;;2078991;28;20272;-67
2023/02/22 01:33:02;;;;;;;23.97;19.07;;;;;19.60;100336.00;;;;2078846;28;20220;-67
2023/02/22 01:34:02;;;;;;;23.70;19.00;;;;;19.40;100335.00;;;;2087925;28;20208;-67
2023/02/22 01:35:04;;;;;;;27.03;19.30;;;;;19.60;100325.00;;;;2087697;28;20259;-67
2023/02/22 01:36:10;;;;;;;24.70;19.08;;;;;19.60;100334.00;;;;2086432;28;20212;-67
2023/02/22 01:37:10;;;;;;;23.23;18.35;;;;;19.60;100315.00;;;;2077263;28;20228;-67
2023/02/22 01:38:10;;;;;;;22.27;17.70;;;;;19.60;100331.00;;;;2079759;28;20308;-67
2023/02/22 01:39:11;;;;;;;26.10;19.00;;;;;19.60;100324.00;;;;2088200;28;20719;-67
2023/02/22 01:40:20;;;;;;;23.13;18.70;;;;;19.60;100307.00;;;;2088122;28;20205;-67
2023/02/22 01:41:21;;;;;;;24.30;17.98;;;;;19.60;100321.00;;;;2079262;28;20209;-67
2023/02/22 01:42:22;;;;;;;23.57;17.80;;;;;19.60;100322.00;;;;2077478;28;20211;-67
2023/02/22 01:43:30;;;;;;;23.45;18.23;;;;;19.60;100330.00;;;;2088146;28;20572;-67
2023/02/22 01:44:33;;;;;;;24.45;17.98;;;;;19.60;100331.00;;;;2086583;28;20216;-67
2023/02/22 01:45:41;;;;;;;22.45;17.58;;;;;19.60;100322.00;;;;2087124;28;20286;-67
2023/02/22 01:46:41;;;;;;;24.33;18.38;;;;;19.60;100319.00;;;;2078518;28;20208;-67
2023/02/22 01:47:42;;;;;;;23.27;18.17;;;;;19.50;100313.00;;;;2079128;28;20205;-66
2023/02/22 01:48:45;;;;;;;24.57;17.57;;;;;19.50;100320.00;;;;2078613;28;20893;-67
2023/02/22 01:49:47;;;;;;;20.45;16.70;;;;;19.60;100322.00;;;;2071101;28;20217;-67
2023/02/22 01:51:09;;;;;;;22.08;17.08;;;;;19.50;100311.00;;;;2070930;28;20304;-67
2023/02/22 01:52:12;;;;;;;23.48;17.92;;;;;19.50;100315.00;;;;2069926;28;20221;-67
2023/02/22 01:53:13;;;;;;;22.20;16.55;;;;;19.50;100311.00;;;;2079542;28;20812;-67
2023/02/22 01:54:16;;;;;;;20.77;16.80;;;;;19.50;100314.00;;;;2070309;28;20248;-67
2023/02/22 01:55:16;;;;;;;21.98;17.30;;;;;19.50;100309.00;;;;2071048;28;20221;-67
2023/02/22 01:56:17;;;;;;;21.00;16.90;;;;;19.50;100318.00;;;;2079083;28;20996;-67
2023/02/22 01:57:19;;;;;;;25.37;18.20;;;;;19.50;100300.00;;;;2079104;28;20708;-67
2023/02/22 01:58:19;;;;;;;21.23;16.33;;;;;19.50;100335.00;;;;2079120;28;20278;-66
2023/02/22 01:59:20;;;;;;;21.63;15.90;;;;;19.50;100313.00;;;;2079201;28;20766;-67
2023/02/22 02:00:23;;;;;;;22.70;16.30;;;;;19.50;100276.00;;;;2071142;28;20642;-67
2023/02/22 02:01:24;;;;;;;22.23;17.40;;;;;19.50;100318.00;;;;2079187;28;20210;-67
2023/02/22 02:02:24;;;;;;;22.25;17.15;;;;;19.50;100300.00;;;;2079148;28;20283;-67
2023/02/22 02:03:29;;;;;;;21.43;16.23;;;;;19.50;100320.00;;;;2071098;28;20346;-67
2023/02/22 02:04:29;;;;;;;21.60;17.20;;;;;19.50;100320.00;;;;2071436;28;20221;-67
2023/02/22 02:05:30;;;;;;;19.53;16.00;;;;;19.50;100326.00;;;;2070477;28;20311;-67
2023/02/22 02:06:31;;;;;;;18.73;14.93;;;;;19.50;100312.00;;;;2071082;28;20672;-67
2023/02/22 02:07:32;;;;;;;20.50;15.30;;;;;19.50;100315.00;;;;2071131;28;20211;-67
2023/02/22 02:09:09;;;;;;;23.40;17.57;;;;;19.50;100313.00;;;;2070671;28;20264;-66
2023/02/22 02:10:13;;;;;;;22.02;16.05;;;;;19.50;100312.00;;;;2066806;28;20228;-67
2023/02/22 02:11:13;;;;;;;22.60;16.25;;;;;19.50;100286.00;;;;2070625;28;20381;-67
2023/02/22 02:12:14;;;;;;;22.33;15.80;;;;;19.40;100299.00;;;;2054546;28;20226;-67
2023/02/22 02:13:15;;;;;;;20.17;15.05;;;;;19.40;100306.00;;;;2061800;28;20581;-67
2023/02/22 02:14:15;;;;;;;21.67;16.67;;;;;19.40;100313.00;;;;2062340;28;20233;-67
2023/02/22 02:15:27;;;;;;;18.03;15.37;;;;;19.40;100312.00;;;;2078403;28;20248;-67
2023/02/22 02:16:38;;;;;;;19.52;16.67;;;;;19.40;100302.00;;;;2078814;28;20217;-67
2023/02/22 02:17:38;;;;;;;18.00;15.07;;;;;19.40;100302.00;;;;2071767;28;20217;-66
2023/02/22 02:18:39;;;;;;;19.47;15.17;;;;;19.50;100299.00;;;;2070241;28;20598;-67
2023/02/22 02:20:06;;;;;;;20.10;15.57;;;;;19.50;100298.00;;;;2078467;28;20224;-67
2023/02/22 02:21:12;;;;;;;19.48;15.10;;;;;19.40;100306.00;;;;2078373;28;20216;-67
2023/02/22 02:22:12;;;;;;;18.98;14.73;;;;;19.40;100302.00;;;;2079140;28;20217;-67
2023/02/22 02:23:22;;;;;;;18.87;15.13;;;;;19.40;100297.00;;;;2087166;28;20217;-67
2023/02/22 02:24:49;;;;;;;20.42;16.23;;;;;19.40;100290.00;;;;2087451;28;20209;-67
2023/02/22 02:26:14;;;;;;;20.02;15.60;;;;;19.40;100298.00;;;;2087116;28;20235;-67
2023/02/22 02:27:21;;;;;;;20.60;16.52;;;;;19.40;100274.00;;;;2086837;28;20216;-67
2023/02/22 02:28:46;;;;;;;19.23;14.77;;;;;19.40;100289.00;;;;2070006;28;20216;-67
2023/02/22 02:30:03;;;;;;;20.75;14.77;;;;;19.40;100281.00;;;;2077256;28;20227;-68
2023/02/22 02:31:30;;;;;;;20.63;16.52;;;;;19.40;100284.00;;;;2078533;28;20232;-67
2023/02/22 02:32:33;;;;;;;21.83;16.95;;;;;19.40;100282.00;;;;2075384;28;20247;-67
2023/02/22 02:33:43;;;;;;;19.27;15.23;;;;;19.40;100276.00;;;;2070619;28;20261;-67
2023/02/22 02:34:57;;;;;;;19.80;14.90;;;;;19.40;100262.00;;;;2071174;28;20244;-67
2023/02/22 02:36:09;;;;;;;18.45;14.82;;;;;19.40;100283.00;;;;2072208;28;20667;-67
2023/02/22 02:37:14;;;;;;;20.98;15.15;;;;;19.40;100275.00;;;;2080928;28;20224;-67
2023/02/22 02:38:36;;;;;;;18.75;14.63;;;;;19.40;100277.00;;;;2060193;28;20225;-67
2023/02/22 02:40:03;;;;;;;20.55;15.05;;;;;19.40;100269.00;;;;2068219;28;20307;-67
2023/02/22 02:41:22;;;;;;;18.52;14.45;;;;;19.40;100277.00;;;;2072246;28;20283;-67
2023/02/22 02:42:25;;;;;;;21.33;15.40;;;;;19.40;100250.00;;;;2086382;28;20224;-67
2023/02/22 02:43:30;;;;;;;19.92;15.25;;;;;19.40;100274.00;;;;2078994;28;20303;-67
2023/02/22 02:44:35;;;;;;;18.10;14.90;;;;;19.40;100256.00;;;;2079872;28;20225;-67
2023/02/22 02:45:54;;;;;;;20.65;14.60;;;;;19.40;100256.00;;;;2087285;28;20240;-67
2023/02/22 02:47:27;;;;;;;18.25;14.60;;;;;19.40;100277.00;;;;2078537;28;20732;-67
2023/02/22 02:48:28;;;;;;;19.30;14.20;;;;;19.40;100274.00;;;;2049929;28;20591;-66
2023/02/22 02:49:42;;;;;;;19.90;15.53;;;;;19.30;100247.00;;;;2059865;28;20313;-67
2023/02/22 02:50:45;;;;;;;19.10;15.15;;;;;19.30;100253.00;;;;2058200;28;20222;-67
2023/02/22 02:51:47;;;;;;;18.90;15.07;;;;;19.40;100268.00;;;;2055002;28;20827;-67
2023/02/22 02:52:47;;;;;;;19.27;15.23;;;;;19.30;100266.00;;;;2063003;28;20674;-67
2023/02/22 02:53:50;;;;;;;19.13;14.60;;;;;19.40;100267.00;;;;2062630;28;20215;-67
2023/02/22 02:54:50;;;;;;;19.58;15.07;;;;;19.30;100265.00;;;;2070772;28;20210;-66
2023/02/22 02:55:50;;;;;;;17.37;14.17;;;;;19.30;100266.00;;;;2062570;28;20222;-67
2023/02/22 02:56:51;;;;;;;18.17;14.47;;;;;19.40;100261.00;;;;2070542;28;20210;-67
2023/02/22 02:57:51;;;;;;;16.33;14.00;;;;;19.30;100266.00;;;;2078800;28;20216;-67
2023/02/22 02:58:52;;;;;;;19.87;14.63;;;;;19.30;100246.00;;;;2078571;28;20229;-67
2023/02/22 02:59:52;;;;;;;18.60;15.07;;;;;19.30;100264.00;;;;2070760;28;20637;-67
2023/02/22 03:00:57;;;;;;;17.20;14.30;;;;;19.30;100257.00;;;;2062459;28;20509;-68
2023/02/22 03:02:37;;;;;;;18.42;13.88;;;;;19.30;100257.00;;;;2071208;28;20217;-67
2023/02/22 03:03:55;;;;;;;18.17;13.75;;;;;19.30;100238.00;;;;2084116;28;20640;-67
2023/02/22 03:05:08;;;;;;;17.98;13.18;;;;;19.30;100259.00;;;;2070176;28;20222;-67
2023/02/22 03:06:35;;;;;;;17.25;13.30;;;;;19.30;100258.00;;;;2066688;28;20229;-67
2023/02/22 03:07:38;;;;;;;17.20;13.50;;;;;19.30;100259.00;;;;2081391;28;20970;-67
2023/02/22 03:09:03;;;;;;;17.20;13.50;;;;;19.30;100253.00;;;;2078513;28;20213;-67
2023/02/22 03:10:20;;;;;;;17.80;12.82;;;;;19.30;100248.00;;;;2073185;28;20240;-67
2023/02/22 03:11:22;;;;;;;17.50;13.88;;;;;19.30;100252.00;;;;2072558;28;20222;-67
2023/02/22 03:12:47;;;;;;;16.40;12.80;;;;;19.30;100243.00;;;;2071334;28;20300;-67
2023/02/22 03:14:10;;;;;;;16.25;12.70;;;;;19.30;100245.00;;;;2072989;28;20212;-67
2023/02/22 03:15:25;;;;;;;17.83;13.05;;;;;19.30;100243.00;;;;2081582;28;20237;-67
2023/02/22 03:16:26;;;;;;;16.08;13.15;;;;;19.30;100250.00;;;;2086998;28;20422;-67
2023/02/22 03:17:46;;;;;;;15.37;13.10;;;;;19.30;100242.00;;;;2087730;28;20239;-67
2023/02/22 03:18:58;;;;;;;16.48;14.02;;;;;19.30;100241.00;;;;2078466;28;21052;-67
2023/02/22 03:20:35;;;;;;;18.80;13.35;;;;;19.30;100236.00;;;;2080058;28;20255;-67
2023/02/22 03:21:44;;;;;;;17.20;12.55;;;;;19.30;100235.00;;;;2078571;28;20208;-67
2023/02/22 03:23:08;;;;;;;16.70;13.10;;;;;19.30;100239.00;;;;2087420;28;20231;-67
2023/02/22 03:24:15;;;;;;;15.88;12.35;;;;;19.30;100231.00;;;;2078744;28;20299;-67
2023/02/22 03:25:29;;;;;;;16.02;13.50;;;;;19.30;100232.00;;;;2082308;28;20254;-67
2023/02/22 03:26:35;;;;;;;15.57;12.05;;;;;19.30;100221.00;;;;2086872;28;20608;-67
2023/02/22 03:27:48;;;;;;;14.35;11.75;;;;;19.30;100229.00;;;;2078828;28;20219;-67
2023/02/22 03:28:50;;;;;;;15.32;12.25;;;;;19.30;100211.00;;;;2079928;28;20228;-67
2023/02/22 03:29:51;;;;;;;16.80;12.70;;;;;19.30;100218.00;;;;2086743;28;20243;-67
2023/02/22 03:31:03;;;;;;;13.63;11.32;;;;;19.20;100221.00;;;;2078566;28;20280;-67
2023/02/22 03:32:05;;;;;;;12.57;11.18;;;;;19.30;100219.00;;;;2065359;28;20603;-67
2023/02/22 03:33:13;;;;;;;12.65;11.18;;;;;19.30;100204.00;;;;2079004;28;20219;-67
2023/02/22 03:34:16;;;;;;;15.13;12.32;;;;;19.20;100222.00;;;;2078689;28;20221;-67
2023/02/22 03:35:22;;;;;;;16.63;13.30;;;;;19.20;100218.00;;;;2069220;28;20685;-66
2023/02/22 03:36:30;;;;;;;14.00;11.75;;;;;19.30;100214.00;;;;2070439;28;20223;-67
2023/02/22 03:37:32;;;;;;;14.43;11.55;;;;;19.20;100221.00;;;;2070390;28;20249;-67
2023/02/22 03:38:33;;;;;;;15.23;12.07;;;;;19.20;100224.00;;;;2054486;28;20214;-67
2023/02/22 03:39:34;;;;;;;13.07;11.37;;;;;19.20;100216.00;;;;2062265;28;20742;-66
2023/02/22 03:40:43;;;;;;;12.82;10.57;;;;;19.20;100224.00;;;;2054411;28;20262;-67
2023/02/22 03:41:47;;;;;;;13.18;11.07;;;;;19.30;100230.00;;;;2064788;28;20214;-67
2023/02/22 03:42:49;;;;;;;12.23;10.85;;;;;19.20;100209.00;;;;2070518;28;20213;-67
2023/02/22 03:43:59;;;;;;;12.27;10.98;;;;;19.20;100231.00;;;;2062736;28;20589;-67
2023/02/22 03:45:00;;;;;;;13.05;10.82;;;;;19.20;100225.00;;;;2063605;28;20738;-67
2023/02/22 03:46:02;;;;;;;11.80;9.90;;;;;19.20;100215.00;;;;2063347;28;20302;-67
2023/02/22 03:47:05;;;;;;;13.27;11.15;;;;;19.20;100222.00;;;;2070663;28;20210;-67
2023/02/22 03:48:27;;;;;;;11.80;9.93;;;;;19.20;100221.00;;;;2053275;28;20246;-67
2023/02/22 03:50:14;;;;;;;12.30;10.27;;;;;19.20;100220.00;;;;2027742;29;20710;-67
2023/02/22 03:51:14;;;;;;;12.30;9.98;;;;;19.20;100196.00;;;;2045505;29;20235;-67
2023/02/22 03:52:14;;;;;;;12.73;10.50;;;;;19.20;100196.00;;;;2043265;29;20287;-66
2023/02/22 03:53:17;;;;;;;12.63;10.37;;;;;19.20;100211.00;;;;2038242;29;20220;-67
2023/02/22 03:54:17;;;;;;;12.65;10.55;;;;;19.20;100213.00;;;;2038171;29;20279;-66
2023/02/22 03:55:18;;;;;;;13.10;10.93;;;;;19.20;100075.00;;;;2046236;28;20352;-67
2023/02/22 03:56:21;;;;;;;12.47;11.00;;;;;19.20;100211.00;;;;2045925;29;20220;-67
2023/02/22 03:57:25;;;;;;;14.15;11.00;;;;;19.20;100220.00;;;;2062020;28;20250;-67
2023/02/22 03:58:26;;;;;;;11.23;9.48;;;;;19.20;100213.00;;;;2062281;28;20244;-67
2023/02/22 03:59:26;;;;;;;13.40;10.23;;;;;19.20;100217.00;;;;2070103;28;20213;-67
2023/02/22 04:00:28;;;;;;;10.80;9.63;;;;;19.20;100217.00;;;;2078782;28;20224;-67
2023/02/22 04:01:29;;;;;;;12.02;10.80;;;;;19.20;100219.00;;;;2063526;28;21036;-67
2023/02/22 04:02:29;;;;;;;12.00;10.13;;;;;19.20;100210.00;;;;2078446;28;20216;-67
2023/02/22 04:03:29;;;;;;;10.97;9.60;;;;;19.20;100210.00;;;;2085314;28;20209;-67
2023/02/22 04:04:30;;;;;;;10.53;9.43;;;;;19.20;100217.00;;;;2087007;28;20229;-67
2023/02/22 04:05:30;;;;;;;10.53;9.43;;;;;19.20;100225.00;;;;2078610;28;20216;-67
2023/02/22 04:06:30;;;;;;;11.23;9.30;;;;;19.20;100206.00;;;;2070465;28;20640;-67
2023/02/22 04:07:31;;;;;;;13.80;10.17;;;;;19.20;100207.00;;;;2078486;28;20575;-67
2023/02/22 04:08:31;;;;;;;9.80;8.57;;;;;19.20;100219.00;;;;2087625;28;20216;-67
2023/02/22 04:09:31;;;;;;;11.30;9.57;;;;;19.20;100218.00;;;;2088969;28;20278;-67
2023/02/22 04:10:32;;;;;;;10.53;9.40;;;;;19.20;100217.00;;;;2088707;28;20219;-67
2023/02/22 04:11:32;;;;;;;10.30;8.93;;;;;19.20;100218.00;;;;2088808;28;20221;-67
2023/02/22 04:12:34;;;;;;;9.77;8.77;;;;;19.20;100216.00;;;;2088856;28;20235;-67
2023/02/22 04:13:34;;;;;;;10.35;9.00;;;;;19.20;100219.00;;;;2087869;28;20579;-67
2023/02/22 04:14:34;;;;;;;10.80;9.17;;;;;19.20;100215.00;;;;2089015;28;20212;-67
2023/02/22 04:15:35;;;;;;;9.87;8.87;;;;;19.10;100216.00;;;;2080045;28;20216;-67
2023/02/22 04:16:35;;;;;;;10.10;9.00;;;;;19.20;100221.00;;;;2079899;28;20237;-68
2023/02/22 04:17:35;;;;;;;10.73;8.77;;;;;19.20;100226.00;;;;2088907;28;20220;-67
2023/02/22 04:18:36;;;;;;;13.60;9.07;;;;;19.20;100230.00;;;;2088114;28;20213;-68
2023/02/22 04:19:36;;;;;;;9.10;8.20;;;;;19.30;100228.00;;;;2088629;28;20298;-68
2023/02/22 04:20:36;;;;;;;12.10;8.10;;;;;19.20;100225.00;;;;2088696;28;20216;-68
2023/02/22 04:21:37;;;;;;;8.73;7.83;;;;;19.30;100217.00;;;;2079539;28;20224;-68
2023/02/22 04:22:37;;;;;;;12.10;8.77;;;;;19.20;100226.00;;;;2079951;28;20225;-69
2023/02/22 04:23:37;;;;;;;9.20;8.27;;;;;19.20;100240.00;;;;2088905;28;20373;-68
2023/02/22 04:24:38;;;;;;;10.03;8.90;;;;;19.20;100228.00;;;;2088741;28;20649;-67
2023/02/22 04:25:38;;;;;;;9.50;8.50;;;;;19.30;100245.00;;;;2088752;28;20639;-67
2023/02/22 04:26:38;;;;;;;8.77;7.73;;;;;19.30;100228.00;;;;2088482;28;20907;-67
2023/02/22 04:27:39;;;;;;;9.87;7.87;;;;;19.20;100224.00;;;;2088651;28;20721;-67
2023/02/22 04:28:39;;;;;;;8.87;6.90;;;;;19.20;100232.00;;;;2088641;28;20710;-67
2023/02/22 04:29:39;;;;;;;8.90;8.00;;;;;19.20;100229.00;;;;2088740;28;20224;-66
2023/02/22 04:30:40;;;;;;;8.73;7.83;;;;;19.20;100244.00;;;;2088765;28;20212;-67
2023/02/22 04:31:40;;;;;;;8.80;7.47;;;;;19.20;100220.00;;;;2088828;28;20219;-66
2023/02/22 04:32:40;;;;;;;9.30;7.70;;;;;19.20;100227.00;;;;2088351;28;20212;-67
2023/02/22 04:33:41;;;;;;;8.27;7.40;;;;;19.20;100204.00;;;;2088700;28;20209;-66
2023/02/22 04:34:41;;;;;;;8.23;6.70;;;;;19.20;100221.00;;;;2088662;28;20212;-67
2023/02/22 04:35:41;;;;;;;10.57;7.63;;;;;19.20;100204.00;;;;2088629;28;20217;-67
2023/02/22 04:36:43;;;;;;;8.97;7.80;;;;;19.30;100230.00;;;;2079883;28;20751;-68
2023/02/22 04:37:43;;;;;;;8.85;7.55;;;;;19.20;100240.00;;;;2079915;28;20228;-69
2023/02/22 04:38:44;;;;;;;9.53;8.10;;;;;19.10;100230.00;;;;2088467;28;20609;-69
2023/02/22 04:39:44;;;;;;;8.17;7.27;;;;;19.10;100227.00;;;;2088616;28;20785;-70
2023/02/22 04:40:44;;;;;;;8.50;7.23;;;;;19.10;100181.00;;;;2088588;28;20259;-69
2023/02/22 04:41:46;;;;;;;8.30;7.37;;;;;19.10;100222.00;;;;2079947;28;20209;-70
2023/02/22 04:42:46;;;;;;;12.48;7.65;;;;;19.10;100222.00;;;;2079901;28;20213;-70
2023/02/22 04:43:47;;;;;;;35.20;7.73;;;;;19.10;100220.00;;;;2085649;28;20217;-70
2023/02/22 04:44:47;;;;;;;7.80;6.67;;;;;19.10;100223.00;;;;2088727;28;20207;-70
2023/02/22 04:45:47;;;;;;;7.70;6.90;;;;;19.00;100211.00;;;;2088500;28;20237;-70
2023/02/22 04:46:48;;;;;;;9.23;7.77;;;;;19.00;100214.00;;;;2088640;28;20698;-70
2023/02/22 04:47:48;;;;;;;10.10;7.87;;;;;19.00;100219.00;;;;2088569;28;20223;-70
2023/02/22 04:48:48;;;;;;;8.50;7.70;;;;;18.60;100220.00;;;;2086907;28;20839;-70
2023/02/22 04:49:49;;;;;;;8.87;7.77;;;;;19.00;100215.00;;;;2088691;28;20209;-70
2023/02/22 04:50:50;;;;;;;7.90;6.40;;;;;19.00;100216.00;;;;2088547;28;20278;-69
2023/02/22 04:51:51;;;;;;;8.38;7.57;;;;;18.90;100211.00;;;;2088540;28;20331;-69
2023/02/22 04:52:51;;;;;;;8.47;7.47;;;;;19.00;100212.00;;;;2088687;28;20722;-75
2023/02/22 04:53:51;;;;;;;8.33;7.47;;;;;19.00;100208.00;;;;2088590;28;20285;-79
2023/02/22 04:54:52;;;;;;;8.40;7.50;;;;;18.90;100207.00;;;;2088492;28;20258;-69
2023/02/22 04:55:52;;;;;;;8.10;7.10;;;;;19.00;100212.00;;;;2079754;28;20259;-70
2023/02/22 04:56:53;;;;;;;8.77;7.87;;;;;18.90;100210.00;;;;2079464;28;20308;-69
2023/02/22 04:57:54;;;;;;;9.00;7.40;;;;;18.90;100211.00;;;;2088160;28;20226;-69
2023/02/22 04:58:54;;;;;;;8.40;7.13;;;;;18.90;100214.00;;;;2079593;28;20300;-71
2023/02/22 04:59:55;;;;;;;8.13;7.00;;;;;18.90;100207.00;;;;2079327;28;20642;-71
2023/02/22 05:00:55;;;;;;;9.63;6.93;;;;;18.90;100206.00;;;;2078375;28;20683;-70
2023/02/22 05:01:55;;;;;;;8.20;7.37;;;;;18.90;100189.00;;;;2079585;28;20243;-70
2023/02/22 05:02:56;;;;;;;7.87;7.07;;;;;18.90;100200.00;;;;2079041;28;20221;-71
2023/02/22 05:03:56;;;;;;;8.20;6.83;;;;;18.90;100202.00;;;;2078098;28;20553;-70
2023/02/22 05:04:57;;;;;;;8.40;6.87;;;;;18.90;100204.00;;;;2088551;28;20219;-70
2023/02/22 05:05:57;;;;;;;11.10;8.00;;;;;18.90;100198.00;;;;2080945;28;20268;-70
2023/02/22 05:06:57;;;;;;;8.47;6.90;;;;;18.90;100195.00;;;;2087307;28;20216;-70
2023/02/22 05:07:58;;;;;;;8.40;7.53;;;;;18.90;100194.00;;;;2079265;28;20550;-70
2023/02/22 05:08:58;;;;;;;10.70;8.47;;;;;18.90;100192.00;;;;2079564;28;20262;-70
2023/02/22 05:10:01;;;;;;;10.10;9.00;;;;;18.90;100192.00;;;;2088551;28;20223;-70